Alger, Washington
Current Conditions -  °F | °C
As of 5:35 AM on Friday 28 Nov 2014 (Local Time) from KBVS Reporting Station
Overcast Overcast  
Wind Chill: 52°   Ceiling: 900
Heat Index: 52°   Visibility: 5mi
Dew Point: 48°   Wind: 5mph
Humidity: 88%   Direction: 240°WSW
Pressure: 29.54"   Gusts: 17mph
Location:  48.4982°N, 122.346°W
Report Text: KBVS 281335Z AUTO 24004G15KT 5SM FEW003 BKN009 OVC015 11/09 A2954 RMK A01 P003
Loading
Personal Weather Stations






























Interactive Weather Map New forecast layout! Learn more

10-Day Weather Forecast

Advertisements
Track Severe Weather on mobile